createdAt,value
2023-02-08T00:00:02.440Z,38.13
2023-02-08T00:02:35.209Z,37.33
2023-02-08T00:05:03.901Z,36.67
2023-02-08T00:07:32.119Z,36.30
2023-02-08T00:10:00.089Z,27.15
2023-02-08T00:12:29.431Z,30.27
2023-02-08T00:14:57.127Z,28.60
2023-02-08T00:17:25.112Z,24.20
2023-02-08T00:19:53.099Z,29.20
2023-02-08T00:22:21.344Z,20.83
2023-02-08T00:24:49.138Z,21.88
2023-02-08T00:27:17.745Z,20.50
2023-02-08T00:29:46.999Z,21.48
2023-02-08T00:32:15.174Z,22.23
2023-02-08T00:34:43.105Z,23.90
2023-02-08T00:37:11.021Z,22.30
2023-02-08T00:39:39.289Z,17.55
2023-02-08T00:42:07.301Z,21.35
2023-02-08T00:44:35.217Z,16.88
2023-02-08T00:47:04.529Z,19.77
2023-02-08T00:49:33.248Z,17.40
2023-02-08T00:52:01.235Z,18.20
2023-02-08T00:54:29.011Z,20.15
2023-02-08T00:56:56.881Z,18.35
2023-02-08T00:59:25.815Z,19.80
2023-02-08T01:01:53.616Z,21.60
2023-02-08T01:04:23.048Z,17.92
2023-02-08T01:06:51.487Z,18.92
2023-02-08T01:09:19.226Z,17.40
2023-02-08T01:11:50.389Z,17.17
2023-02-08T01:14:18.521Z,17.30
2023-02-08T01:16:46.500Z,18.95
2023-02-08T01:19:14.776Z,19.00
2023-02-08T01:21:44.241Z,20.02
2023-02-08T01:24:12.879Z,17.45
2023-02-08T01:26:40.789Z,18.13
2023-02-08T01:29:09.455Z,19.10
2023-02-08T01:31:38.829Z,15.20
2023-02-08T01:34:08.404Z,18.85
2023-02-08T01:36:37.180Z,18.98
2023-02-08T01:39:07.626Z,20.05
2023-02-08T01:41:38.379Z,15.90
2023-02-08T01:44:09.666Z,20.55
2023-02-08T01:46:39.428Z,22.00
2023-02-08T01:49:12.219Z,18.30
2023-02-08T01:51:42.788Z,20.15
2023-02-08T01:54:13.341Z,19.85
2023-02-08T01:56:45.953Z,20.55
2023-02-08T01:59:17.296Z,19.50
2023-02-08T02:01:47.404Z,23.92
2023-02-08T02:04:15.603Z,24.27
2023-02-08T02:06:48.874Z,20.63
2023-02-08T02:09:22.177Z,19.17
2023-02-08T02:11:51.269Z,19.52
2023-02-08T02:14:19.567Z,19.40
2023-02-08T02:16:48.373Z,19.40
2023-02-08T02:19:22.132Z,17.42
2023-02-08T02:21:59.755Z,23.13
2023-02-08T02:25:01.110Z,18.83
2023-02-08T02:27:40.254Z,19.15
2023-02-08T02:30:33.829Z,19.85
2023-02-08T02:33:10.836Z,20.37
2023-02-08T02:35:43.799Z,25.42
2023-02-08T02:38:16.435Z,20.50
2023-02-08T02:40:52.100Z,23.25
2023-02-08T02:43:41.725Z,17.77
2023-02-08T02:46:17.043Z,24.83
2023-02-08T02:48:50.027Z,19.73
2023-02-08T02:51:21.484Z,19.63
2023-02-08T02:53:52.759Z,21.13
2023-02-08T02:56:25.483Z,23.40
2023-02-08T02:58:54.375Z,21.90
2023-02-08T03:01:26.131Z,25.10
2023-02-08T03:03:55.829Z,18.50
2023-02-08T03:06:30.412Z,20.42
2023-02-08T03:09:14.072Z,21.73
2023-02-08T03:11:46.545Z,19.83
2023-02-08T03:14:25.483Z,20.10
2023-02-08T03:17:15.609Z,18.02
2023-02-08T03:19:48.420Z,19.83
2023-02-08T03:22:18.664Z,19.38
2023-02-08T03:24:52.202Z,18.00
2023-02-08T03:27:25.095Z,20.75
2023-02-08T03:29:57.684Z,20.80
2023-02-08T03:32:27.983Z,18.80
2023-02-08T03:34:59.785Z,21.48
2023-02-08T03:37:29.254Z,20.98
2023-02-08T03:40:01.230Z,20.55
2023-02-08T03:42:29.835Z,23.92
2023-02-08T03:45:01.098Z,19.30
2023-02-08T03:47:31.780Z,21.70
2023-02-08T03:50:03.067Z,22.35
2023-02-08T03:52:32.033Z,20.85
2023-02-08T03:55:04.384Z,19.15
2023-02-08T03:57:35.841Z,18.83
2023-02-08T04:00:07.975Z,21.52
2023-02-08T04:02:44.869Z,23.83
2023-02-08T04:05:15.065Z,23.42
2023-02-08T04:07:43.009Z,20.48
2023-02-08T04:10:11.256Z,24.00
2023-02-08T04:12:39.361Z,26.65
2023-02-08T04:15:08.363Z,20.88
2023-02-08T04:17:36.184Z,22.85
2023-02-08T04:20:04.181Z,21.67
2023-02-08T04:22:33.628Z,20.85
2023-02-08T04:25:01.845Z,18.70
2023-02-08T04:27:29.954Z,21.30
2023-02-08T04:29:57.773Z,22.58
2023-02-08T04:32:25.744Z,21.45
2023-02-08T04:34:54.095Z,19.08
2023-02-08T04:37:21.939Z,20.92
2023-02-08T04:39:51.173Z,26.10
2023-02-08T04:42:18.992Z,25.30
2023-02-08T04:44:46.808Z,23.33
2023-02-08T04:47:15.016Z,24.35
2023-02-08T04:49:42.973Z,22.88
2023-02-08T04:52:11.081Z,19.85
2023-02-08T04:54:40.849Z,21.95
2023-02-08T04:57:10.360Z,23.50
2023-02-08T04:59:38.147Z,21.17
2023-02-08T05:02:06.016Z,21.92
2023-02-08T05:04:34.015Z,19.70
2023-02-08T05:07:02.053Z,22.42
2023-02-08T05:09:29.839Z,19.20
2023-02-08T05:11:57.925Z,21.45
2023-02-08T05:14:27.325Z,19.10
2023-02-08T05:16:55.209Z,19.58
2023-02-08T05:19:22.883Z,24.00
2023-02-08T05:21:50.982Z,21.50
2023-02-08T05:24:18.790Z,20.75
2023-02-08T05:26:47.119Z,19.98
2023-02-08T05:29:15.386Z,21.08
2023-02-08T05:31:44.671Z,21.50
2023-02-08T05:34:12.844Z,22.02
2023-02-08T05:36:40.782Z,19.70
2023-02-08T05:39:08.697Z,21.88
2023-02-08T05:41:37.267Z,23.63
2023-02-08T05:44:05.276Z,24.08
2023-02-08T05:46:33.300Z,20.33
2023-02-08T05:49:02.855Z,20.83
2023-02-08T05:51:30.747Z,24.65
2023-02-08T05:53:58.779Z,23.50
2023-02-08T05:56:27.537Z,21.10
2023-02-08T05:58:55.355Z,27.25
2023-02-08T06:01:24.738Z,21.75
2023-02-08T06:03:52.538Z,24.10
2023-02-08T06:06:21.888Z,27.27
2023-02-08T06:08:49.660Z,24.08
2023-02-08T06:11:19.259Z,21.30
2023-02-08T06:13:47.401Z,26.33
2023-02-08T06:16:18.300Z,24.60
2023-02-08T06:18:47.702Z,24.30
2023-02-08T06:21:15.890Z,21.15
2023-02-08T06:23:45.237Z,21.52
2023-02-08T06:26:13.067Z,22.92
2023-02-08T06:28:40.905Z,24.42
2023-02-08T06:31:08.806Z,18.55
2023-02-08T06:33:37.132Z,24.30
2023-02-08T06:36:05.274Z,24.95
2023-02-08T06:38:33.234Z,21.52
2023-02-08T06:41:02.398Z,22.85
2023-02-08T06:43:30.201Z,20.25
2023-02-08T06:45:58.079Z,24.50
2023-02-08T06:48:26.037Z,24.50
2023-02-08T06:50:55.434Z,22.08
2023-02-08T06:53:23.200Z,21.38
2023-02-08T06:55:51.495Z,23.80
2023-02-08T06:58:21.066Z,23.65
2023-02-08T07:00:48.852Z,25.95
2023-02-08T07:03:17.545Z,24.10
2023-02-08T07:06:02.540Z,26.85
2023-02-08T07:08:31.925Z,23.42
2023-02-08T07:10:59.673Z,21.08
2023-02-08T07:13:29.277Z,26.58
2023-02-08T07:15:57.186Z,23.52
2023-02-08T07:18:25.661Z,28.88
2023-02-08T07:20:53.578Z,26.58
2023-02-08T07:23:21.522Z,33.25
2023-02-08T07:25:58.405Z,34.13
2023-02-08T07:28:26.681Z,28.60
2023-02-08T07:30:58.882Z,32.83
2023-02-08T07:33:27.241Z,30.70
2023-02-08T07:35:55.015Z,29.17
2023-02-08T07:38:25.502Z,29.33
2023-02-08T07:40:53.615Z,31.08
2023-02-08T07:43:21.583Z,31.35
2023-02-08T07:45:59.345Z,32.10
2023-02-08T07:48:27.206Z,34.22
2023-02-08T07:50:54.986Z,31.98
2023-02-08T07:53:23.086Z,31.55
2023-02-08T07:55:51.734Z,35.58
2023-02-08T07:58:19.666Z,33.47
2023-02-08T08:00:47.505Z,30.42
2023-02-08T08:03:16.769Z,31.25
2023-02-08T08:05:46.074Z,27.15
2023-02-08T08:08:14.422Z,29.05
2023-02-08T08:10:43.059Z,27.45
2023-02-08T08:13:11.008Z,30.77
2023-02-08T08:15:38.902Z,29.27
2023-02-08T08:18:06.905Z,26.60
2023-02-08T08:20:36.403Z,27.48
2023-02-08T08:23:05.044Z,27.17
2023-02-08T08:25:32.927Z,29.85
2023-02-08T08:28:01.794Z,30.33
2023-02-08T08:30:29.686Z,29.02
2023-02-08T08:32:57.502Z,28.95
2023-02-08T08:35:25.607Z,33.92
2023-02-08T08:37:54.639Z,26.25
2023-02-08T08:40:24.317Z,26.67
2023-02-08T08:42:52.945Z,25.70
2023-02-08T08:45:20.881Z,38.25
2023-02-08T08:47:49.050Z,30.20
2023-02-08T08:50:17.194Z,25.73
2023-02-08T08:52:44.967Z,28.38
2023-02-08T08:55:14.298Z,36.63
2023-02-08T08:57:42.324Z,29.50
2023-02-08T09:00:12.586Z,33.40
2023-02-08T09:02:40.467Z,27.42
2023-02-08T09:05:08.499Z,30.98
2023-02-08T09:07:36.438Z,29.30
2023-02-08T09:10:04.736Z,37.80
2023-02-08T09:12:34.090Z,28.45
2023-02-08T09:15:02.980Z,32.22
2023-02-08T09:17:30.787Z,23.67
2023-02-08T09:19:58.545Z,26.40
2023-02-08T09:22:26.539Z,23.52
2023-02-08T09:24:54.591Z,22.08
2023-02-08T09:27:23.362Z,20.75
2023-02-08T09:29:57.214Z,21.90
2023-02-08T09:32:25.283Z,21.38
2023-02-08T09:34:52.939Z,42.70
2023-02-08T09:37:20.879Z,34.25
2023-02-08T09:39:48.643Z,30.55
2023-02-08T09:42:26.816Z,20.70
2023-02-08T09:45:07.086Z,29.15
2023-02-08T09:47:36.312Z,23.05
2023-02-08T09:50:08.071Z,26.17
2023-02-08T09:52:39.541Z,26.08
2023-02-08T09:55:18.835Z,19.10
2023-02-08T09:57:47.556Z,18.45
2023-02-08T10:00:21.254Z,23.42
2023-02-08T10:02:50.108Z,19.48
2023-02-08T10:05:23.033Z,17.33
2023-02-08T10:07:50.936Z,20.87
2023-02-08T10:10:25.781Z,19.27
2023-02-08T10:12:59.579Z,20.90
2023-02-08T10:15:37.864Z,17.95
2023-02-08T10:18:29.381Z,17.65
2023-02-08T10:21:07.088Z,22.83
2023-02-08T10:23:47.201Z,15.30
2023-02-08T10:26:18.807Z,21.48
2023-02-08T10:29:01.939Z,16.55
2023-02-08T10:31:43.291Z,16.85
2023-02-08T10:34:20.276Z,17.67
2023-02-08T10:36:48.335Z,19.27
2023-02-08T10:39:17.902Z,21.38
2023-02-08T10:41:47.506Z,17.70
2023-02-08T10:44:28.133Z,21.08
2023-02-08T10:47:07.311Z,20.02
2023-02-08T10:49:40.936Z,15.55
2023-02-08T10:52:09.099Z,17.88
2023-02-08T10:54:37.118Z,18.92
2023-02-08T10:57:06.603Z,17.70
2023-02-08T10:59:38.230Z,19.25
2023-02-08T11:02:21.762Z,18.67
2023-02-08T11:05:00.282Z,19.20
2023-02-08T11:07:28.402Z,16.63
2023-02-08T11:09:56.247Z,15.95
2023-02-08T11:12:24.349Z,14.10
2023-02-08T11:14:53.902Z,17.58
2023-02-08T11:17:28.009Z,18.50
2023-02-08T11:19:58.998Z,15.60
2023-02-08T11:22:31.023Z,17.55
2023-02-08T11:25:00.613Z,18.73
2023-02-08T11:27:33.284Z,14.32
2023-02-08T11:30:31.553Z,18.30
2023-02-08T11:33:25.694Z,15.38
2023-02-08T11:36:07.942Z,14.30
2023-02-08T11:38:38.545Z,18.65
2023-02-08T11:41:16.029Z,15.57
2023-02-08T11:43:44.274Z,21.05
2023-02-08T11:46:12.318Z,19.67
2023-02-08T11:48:47.879Z,14.00
2023-02-08T11:51:29.933Z,15.82
2023-02-08T11:53:58.424Z,21.08
2023-02-08T11:56:28.630Z,21.67
2023-02-08T11:58:58.698Z,16.67
2023-02-08T12:01:28.905Z,14.43
2023-02-08T12:04:01.647Z,12.05
2023-02-08T12:06:48.007Z,14.00
2023-02-08T12:09:25.501Z,15.18
2023-02-08T12:11:57.948Z,18.30
2023-02-08T12:14:37.485Z,11.13
2023-02-08T12:17:18.082Z,10.82
2023-02-08T12:20:05.406Z,14.07
2023-02-08T12:22:33.471Z,9.20
2023-02-08T12:25:15.528Z,12.45
2023-02-08T12:27:47.335Z,13.82
2023-02-08T12:30:22.904Z,7.80
2023-02-08T12:33:06.317Z,8.88
2023-02-08T12:36:03.076Z,8.68
2023-02-08T12:39:10.405Z,9.43
2023-02-08T12:41:53.676Z,11.88
2023-02-08T12:44:30.879Z,9.98
2023-02-08T12:47:10.261Z,7.15
2023-02-08T12:49:57.740Z,6.47
2023-02-08T12:52:36.664Z,6.60
2023-02-08T12:55:11.210Z,7.00
2023-02-08T12:57:41.952Z,7.93
2023-02-08T13:00:20.062Z,8.23
2023-02-08T13:02:57.481Z,8.02
2023-02-08T13:05:28.682Z,12.50
2023-02-08T13:08:02.857Z,5.65
2023-02-08T13:10:34.832Z,6.57
2023-02-08T13:13:07.411Z,3.22
2023-02-08T13:15:39.886Z,5.05
2023-02-08T13:18:16.763Z,4.88
2023-02-08T13:20:47.431Z,5.30
2023-02-08T13:23:23.065Z,6.30
2023-02-08T13:25:53.545Z,4.55
2023-02-08T13:28:25.927Z,5.70
2023-02-08T13:30:57.423Z,6.65
2023-02-08T13:33:31.748Z,5.78
2023-02-08T13:35:59.958Z,4.53
2023-02-08T13:38:31.001Z,6.63
2023-02-08T13:41:16.430Z,6.00
2023-02-08T13:43:49.416Z,7.70
2023-02-08T13:46:20.597Z,6.53
2023-02-08T13:48:50.356Z,3.67
2023-02-08T13:51:58.730Z,6.20
2023-02-08T13:54:28.243Z,10.13
2023-02-08T13:56:56.207Z,6.30
2023-02-08T13:59:36.226Z,10.68
2023-02-08T14:02:38.607Z,5.65
2023-02-08T14:05:34.646Z,6.95
2023-02-08T14:08:04.678Z,4.88
2023-02-08T14:10:38.561Z,8.02
2023-02-08T14:13:09.543Z,9.50
2023-02-08T14:15:43.493Z,8.70
2023-02-08T14:18:27.381Z,7.13
2023-02-08T14:21:06.996Z,12.85
2023-02-08T14:23:40.385Z,4.82
2023-02-08T14:26:11.649Z,7.22
2023-02-08T14:28:42.482Z,6.70
2023-02-08T14:31:12.264Z,4.70
2023-02-08T14:33:42.669Z,4.20
2023-02-08T14:36:34.579Z,3.83
2023-02-08T14:39:09.964Z,4.13
2023-02-08T14:41:50.617Z,5.63
2023-02-08T14:44:56.236Z,4.82
2023-02-08T14:48:00.469Z,5.18
2023-02-08T14:50:37.398Z,14.20
2023-02-08T14:53:15.777Z,22.98
2023-02-08T14:55:47.340Z,12.48
2023-02-08T14:58:25.480Z,15.93
2023-02-08T15:00:55.423Z,11.50
2023-02-08T15:03:23.496Z,17.23
2023-02-08T15:06:32.863Z,13.68
2023-02-08T15:09:01.333Z,13.38
2023-02-08T15:11:31.423Z,18.95
2023-02-08T15:14:03.766Z,12.27
2023-02-08T15:16:36.385Z,18.95
2023-02-08T15:19:04.847Z,55.85
2023-02-08T15:21:36.692Z,42.85
2023-02-08T15:24:08.284Z,31.08
2023-02-08T15:26:36.160Z,23.73
2023-02-08T15:29:05.221Z,13.77
2023-02-08T15:31:34.550Z,12.02
2023-02-08T15:34:03.319Z,17.85
2023-02-08T15:36:33.585Z,11.25
2023-02-08T15:39:03.712Z,13.18
2023-02-08T15:41:34.346Z,27.38
2023-02-08T15:44:16.166Z,9.88
2023-02-08T15:46:44.838Z,8.95
2023-02-08T15:49:15.815Z,10.65
2023-02-08T15:51:44.600Z,10.75
2023-02-08T15:54:17.447Z,24.88
2023-02-08T15:56:50.970Z,18.27
2023-02-08T15:59:25.593Z,10.60
2023-02-08T16:01:54.779Z,12.82
2023-02-08T16:04:22.791Z,9.25
2023-02-08T16:06:52.201Z,13.45
2023-02-08T16:09:22.641Z,8.75
2023-02-08T16:11:52.621Z,7.47
2023-02-08T16:14:28.781Z,6.70
2023-02-08T16:17:01.059Z,6.72
2023-02-08T16:19:31.126Z,7.60
2023-02-08T16:22:16.970Z,7.82
2023-02-08T16:24:46.968Z,7.90
2023-02-08T16:27:21.724Z,10.45
2023-02-08T16:29:51.940Z,7.80
2023-02-08T16:32:25.820Z,11.82
2023-02-08T16:34:55.032Z,9.85
2023-02-08T16:37:27.441Z,10.43
2023-02-08T16:39:58.105Z,25.65
2023-02-08T16:42:30.909Z,41.50
2023-02-08T16:45:04.550Z,36.17
2023-02-08T16:47:37.840Z,19.63
2023-02-08T16:50:06.463Z,19.73
2023-02-08T16:52:34.911Z,13.77
2023-02-08T16:55:02.929Z,8.23
2023-02-08T16:57:40.400Z,9.43
2023-02-08T17:00:18.537Z,9.32
2023-02-08T17:02:46.415Z,11.60
2023-02-08T17:05:14.609Z,12.00
2023-02-08T17:07:42.787Z,12.13
2023-02-08T17:10:30.206Z,13.63
2023-02-08T17:13:17.120Z,10.95
2023-02-08T17:15:50.507Z,10.75
2023-02-08T17:18:18.890Z,10.82
2023-02-08T17:20:46.978Z,8.52
2023-02-08T17:23:15.920Z,11.38
2023-02-08T17:25:44.630Z,7.97
2023-02-08T17:28:16.098Z,8.25
2023-02-08T17:30:44.766Z,11.27
2023-02-08T17:33:18.296Z,10.43
2023-02-08T17:35:46.874Z,8.20
2023-02-08T17:38:15.768Z,7.70
2023-02-08T17:40:44.232Z,10.70
2023-02-08T17:43:13.383Z,12.88
2023-02-08T17:45:44.144Z,14.68
2023-02-08T17:48:14.429Z,8.88
2023-02-08T17:50:48.896Z,10.98
2023-02-08T17:53:16.707Z,9.73
2023-02-08T17:55:45.369Z,14.70
2023-02-08T17:58:13.862Z,11.77
2023-02-08T18:00:41.960Z,10.05
2023-02-08T18:03:10.111Z,12.75
2023-02-08T18:05:39.819Z,12.30
2023-02-08T18:08:07.792Z,11.48
2023-02-08T18:10:35.919Z,13.60
2023-02-08T18:13:03.802Z,11.77
2023-02-08T18:15:31.807Z,22.35
2023-02-08T18:17:59.650Z,20.30
2023-02-08T18:20:28.562Z,15.07
2023-02-08T18:22:58.418Z,14.27
2023-02-08T18:25:26.196Z,13.50
2023-02-08T18:27:54.058Z,13.40
2023-02-08T18:30:22.836Z,21.15
2023-02-08T18:32:50.545Z,16.65
2023-02-08T18:35:18.589Z,14.68
2023-02-08T18:37:49.522Z,19.88
2023-02-08T18:40:19.086Z,19.90
2023-02-08T18:42:46.980Z,23.88
2023-02-08T18:45:15.316Z,19.35
2023-02-08T18:47:43.323Z,23.05
2023-02-08T18:50:11.904Z,19.52
2023-02-08T18:52:39.779Z,23.05
2023-02-08T18:55:08.287Z,23.00
2023-02-08T18:57:39.966Z,25.77
2023-02-08T19:00:09.622Z,22.85
2023-02-08T19:02:39.634Z,23.58
2023-02-08T19:05:08.143Z,23.65
2023-02-08T19:07:38.852Z,25.92
2023-02-08T19:10:08.147Z,24.58
2023-02-08T19:12:38.469Z,29.42
2023-02-08T19:15:07.915Z,32.58
2023-02-08T19:17:36.096Z,52.28
2023-02-08T19:20:06.179Z,85.72
2023-02-08T19:22:34.806Z,64.85
2023-02-08T19:25:02.605Z,64.38
2023-02-08T19:27:30.734Z,63.35
2023-02-08T19:30:00.329Z,55.47
2023-02-08T19:32:28.233Z,60.17
2023-02-08T19:34:56.264Z,58.05
2023-02-08T19:37:24.770Z,51.38
2023-02-08T19:39:52.553Z,52.33
2023-02-08T19:42:20.601Z,47.92
2023-02-08T19:44:49.581Z,49.67
2023-02-08T19:47:19.175Z,47.85
2023-02-08T19:49:48.425Z,40.38
2023-02-08T19:52:19.982Z,48.50
2023-02-08T19:54:48.787Z,43.00
2023-02-08T19:57:18.019Z,43.88
2023-02-08T19:59:46.718Z,49.03
2023-02-08T20:02:15.594Z,51.22
2023-02-08T20:04:45.259Z,57.13
2023-02-08T20:07:13.625Z,82.90
2023-02-08T20:09:42.114Z,70.05
2023-02-08T20:12:10.027Z,83.65
2023-02-08T20:14:39.484Z,86.68
2023-02-08T20:17:07.254Z,92.78
2023-02-08T20:19:37.537Z,92.10
2023-02-08T20:22:06.859Z,90.28
2023-02-08T20:24:34.737Z,92.15
2023-02-08T20:27:02.614Z,92.65
2023-02-08T20:29:30.848Z,95.72
2023-02-08T20:32:01.236Z,95.50
2023-02-08T20:34:30.297Z,89.05
2023-02-08T20:37:07.436Z,97.82
2023-02-08T20:39:38.610Z,93.90
2023-02-08T20:42:07.015Z,89.50
2023-02-08T20:44:35.921Z,77.78
2023-02-08T20:47:03.989Z,68.47
2023-02-08T20:49:33.334Z,74.72
2023-02-08T20:52:01.967Z,70.18
2023-02-08T20:54:29.911Z,66.10
2023-02-08T20:56:59.333Z,55.72
2023-02-08T20:59:27.229Z,51.08
2023-02-08T21:01:55.636Z,55.08
2023-02-08T21:04:27.115Z,51.50
2023-02-08T21:06:55.085Z,45.15
2023-02-08T21:09:25.441Z,47.72
2023-02-08T21:11:53.927Z,42.65
2023-02-08T21:14:24.177Z,45.25
2023-02-08T21:16:56.003Z,63.28
2023-02-08T21:19:26.280Z,54.60
2023-02-08T21:22:01.478Z,54.83
2023-02-08T21:24:38.412Z,53.20
2023-02-08T21:27:20.073Z,56.30
2023-02-08T21:30:11.032Z,60.58
2023-02-08T21:32:41.767Z,54.00
2023-02-08T21:35:09.628Z,48.00
2023-02-08T21:37:37.421Z,50.55
2023-02-08T21:40:06.163Z,48.67
2023-02-08T21:42:34.861Z,53.17
2023-02-08T21:45:04.364Z,46.58
2023-02-08T21:47:32.326Z,42.97
2023-02-08T21:50:17.848Z,44.53
2023-02-08T21:53:03.279Z,49.67
2023-02-08T21:55:31.974Z,42.83
2023-02-08T21:57:59.873Z,43.47
2023-02-08T22:00:29.461Z,40.45
2023-02-08T22:02:57.977Z,36.88
2023-02-08T22:05:26.981Z,25.13
2023-02-08T22:07:57.462Z,21.55
2023-02-08T22:10:29.032Z,18.40
2023-02-08T22:12:57.401Z,14.85
2023-02-08T22:15:27.193Z,19.05
2023-02-08T22:17:59.580Z,16.42
2023-02-08T22:20:27.911Z,16.17
2023-02-08T22:22:55.930Z,17.65
2023-02-08T22:25:24.451Z,14.07
2023-02-08T22:27:52.241Z,16.42
2023-02-08T22:30:22.121Z,17.08
2023-02-08T22:32:51.117Z,19.13
2023-02-08T22:35:20.438Z,14.02
2023-02-08T22:37:49.501Z,18.42
2023-02-08T22:40:17.562Z,13.70
2023-02-08T22:42:45.479Z,12.52
2023-02-08T22:45:13.862Z,11.98
2023-02-08T22:47:46.016Z,14.95
2023-02-08T22:50:14.055Z,17.27
2023-02-08T22:52:43.304Z,14.68
2023-02-08T22:55:13.014Z,16.63
2023-02-08T22:57:43.457Z,17.50
2023-02-08T23:00:14.777Z,13.50
2023-02-08T23:02:42.741Z,14.75
2023-02-08T23:05:15.121Z,20.77
2023-02-08T23:07:44.463Z,15.48
2023-02-08T23:10:12.804Z,14.80
2023-02-08T23:12:41.022Z,15.55
2023-02-08T23:15:11.355Z,10.63
2023-02-08T23:17:39.490Z,18.60
2023-02-08T23:20:08.902Z,14.57
2023-02-08T23:22:37.871Z,13.88
2023-02-08T23:25:08.312Z,13.10
2023-02-08T23:27:36.559Z,12.07
2023-02-08T23:30:05.025Z,14.23
2023-02-08T23:32:35.771Z,16.80
2023-02-08T23:35:03.610Z,18.83
2023-02-08T23:37:31.519Z,14.25
2023-02-08T23:40:00.048Z,17.45
2023-02-08T23:42:29.604Z,12.70
2023-02-08T23:45:00.698Z,15.95
2023-02-08T23:47:29.805Z,17.15
2023-02-08T23:49:57.942Z,18.50
2023-02-08T23:52:25.691Z,13.57
2023-02-08T23:54:53.782Z,15.20
2023-02-08T23:57:21.816Z,16.10
2023-02-08T23:59:51.221Z,16.50
